Time;durP1;ratioP1;P1;durP2;ratioP2;P2;SDS_P1;SDS_P2;PMS_P1;PMS_P2;Temp;Humidity;BMP_temperature;BMP_pressure;BME280_temperature;BME280_humidity;BME280_pressure;Samples;Min_cycle;Max_cycle;Signal;HPM_P1;HPM_P2
2022/06/08 00:01:23;;;;;;;17.03;12.13;;;;;;;14.20;100.00;100158.77;1722764;81;22224;-58
2022/06/08 00:03:53;;;;;;;17.23;12.60;;;;;;;14.17;100.00;100155.28;1747023;81;21736;-63
2022/06/08 00:06:21;;;;;;;17.27;12.78;;;;;;;14.14;100.00;100155.70;1766969;81;22692;-55
2022/06/08 00:08:48;;;;;;;22.67;14.40;;;;;;;14.09;100.00;100156.33;1768063;81;22105;-55
2022/06/08 00:11:16;;;;;;;24.23;15.00;;;;;;;14.08;100.00;100159.14;1780567;79;22225;-54
2022/06/08 00:13:44;;;;;;;20.17;12.83;;;;;;;14.09;100.00;100156.80;1737781;80;21786;-57
2022/06/08 00:16:13;;;;;;;20.43;13.20;;;;;;;14.04;100.00;100152.70;1766582;80;21659;-56
2022/06/08 00:18:44;;;;;;;20.87;14.27;;;;;;;13.99;100.00;100148.09;1756120;81;21814;-56
2022/06/08 00:21:13;;;;;;;24.77;14.63;;;;;;;13.99;100.00;100150.71;1777517;79;21789;-56
2022/06/08 00:23:41;;;;;;;17.63;13.50;;;;;;;14.01;100.00;100150.49;1768818;81;22182;-57
2022/06/08 00:26:08;;;;;;;17.50;12.57;;;;;;;13.85;100.00;100147.83;1776170;79;22183;-55
2022/06/08 00:28:36;;;;;;;21.27;13.80;;;;;;;13.85;100.00;100146.02;1769195;81;21729;-55
2022/06/08 00:31:05;;;;;;;18.50;11.70;;;;;;;13.79;100.00;100143.44;1787322;79;21745;-55
2022/06/08 00:33:33;;;;;;;18.60;13.37;;;;;;;13.77;100.00;100139.70;1742635;80;21626;-65
2022/06/08 00:36:01;;;;;;;17.77;13.07;;;;;;;13.69;100.00;100146.48;1750876;80;22081;-56
2022/06/08 00:38:29;;;;;;;19.43;14.00;;;;;;;13.68;100.00;100144.88;1769404;81;21448;-55
2022/06/08 00:41:34;;;;;;;26.83;16.33;;;;;;;13.61;100.00;100146.70;1768094;81;21785;-55
2022/06/08 00:44:02;;;;;;;23.10;15.87;;;;;;;13.61;100.00;100146.70;1760509;79;22136;-55
2022/06/08 00:46:30;;;;;;;24.70;16.17;;;;;;;13.68;100.00;100144.88;1744369;81;21752;-57
2022/06/08 00:49:00;;;;;;;25.67;16.23;;;;;;;13.84;100.00;100140.48;1781732;79;21689;-55
2022/06/08 00:51:28;;;;;;;21.68;14.70;;;;;;;13.87;100.00;100145.31;1765561;81;21661;-57
2022/06/08 00:53:59;;;;;;;18.50;11.50;;;;;;;13.95;100.00;100143.48;1780452;79;21522;-55
2022/06/08 00:56:30;;;;;;;16.42;10.80;;;;;;;13.97;100.00;100138.81;1764231;81;21656;-57
2022/06/08 00:58:58;;;;;;;17.30;11.08;;;;;;;14.03;100.00;100144.04;1767830;81;21464;-57
2022/06/08 01:01:25;;;;;;;14.53;10.50;;;;;;;14.05;100.00;100145.13;1759469;79;21033;-61
2022/06/08 01:04:11;;;;;;;14.43;9.70;;;;;;;14.06;100.00;100147.56;1768546;81;21740;-55
2022/06/08 01:06:42;;;;;;;16.40;11.00;;;;;;;14.16;100.00;100146.30;1766096;81;21745;-59
2022/06/08 01:09:29;;;;;;;12.00;8.83;;;;;;;14.22;100.00;100144.96;1766712;81;22845;-58
2022/06/08 01:11:59;;;;;;;13.27;9.07;;;;;;;14.22;100.00;100144.96;1772690;79;21405;-56
2022/06/08 01:14:29;;;;;;;13.47;9.03;;;;;;;14.14;100.00;100145.20;1770127;80;21685;-64
2022/06/08 01:17:01;;;;;;;15.27;9.53;;;;;;;14.11;100.00;100145.62;1773150;80;22526;-56
2022/06/08 01:19:28;;;;;;;15.75;9.10;;;;;;;14.13;100.00;100144.92;1773064;79;21476;-57
2022/06/08 01:21:58;;;;;;;15.03;9.57;;;;;;;14.04;100.00;100146.95;1772992;80;21231;-58
2022/06/08 01:24:27;;;;;;;10.38;7.78;;;;;;;14.04;100.00;100146.95;1772566;79;21465;-62
2022/06/08 01:27:21;;;;;;;11.93;8.63;;;;;;;14.06;100.00;100150.69;1770812;80;22160;-56
2022/06/08 01:29:58;;;;;;;16.90;9.90;;;;;;;14.02;100.00;100144.27;1758948;80;22193;-57
2022/06/08 01:32:58;;;;;;;13.43;8.83;;;;;;;14.00;100.00;100149.69;1772819;80;22266;-57
2022/06/08 01:35:52;;;;;;;14.13;9.80;;;;;;;14.08;100.00;100146.83;1770547;80;21725;-58
2022/06/08 01:38:25;;;;;;;16.23;9.20;;;;;;;13.92;100.00;100142.58;1772538;80;21677;-57
2022/06/08 01:41:34;;;;;;;15.43;9.73;;;;;;;13.92;100.00;100142.58;1770986;80;21711;-68
2022/06/08 01:44:27;;;;;;;26.07;11.77;;;;;;;14.00;100.00;100145.77;1761977;80;21535;-58
2022/06/08 01:47:17;;;;;;;15.93;10.00;;;;;;;14.09;100.00;100147.62;1759444;80;21775;-59
2022/06/08 01:49:58;;;;;;;15.80;9.70;;;;;;;14.09;100.00;100147.62;1736993;81;21719;-67
2022/06/08 01:52:42;;;;;;;16.73;9.58;;;;;;;14.10;100.00;100153.99;1773046;79;22416;-60
2022/06/08 01:55:27;;;;;;;14.20;9.67;;;;;;;14.11;100.00;100156.11;1770958;80;21054;-58
2022/06/08 01:58:14;;;;;;;17.27;10.33;;;;;;;14.24;100.00;100152.09;1773546;80;22139;-59
2022/06/08 02:00:50;;;;;;;19.30;11.37;;;;;;;14.59;100.00;100160.94;1773149;80;22223;-61
2022/06/08 02:03:29;;;;;;;20.87;11.93;;;;;;;15.13;100.00;100156.89;1772852;79;21789;-59
2022/06/08 02:06:22;;;;;;;19.73;14.43;;;;;;;16.23;100.00;100152.21;1772960;79;22231;-57
2022/06/08 02:09:02;;;;;;;23.17;14.10;;;;;;;16.23;100.00;100152.21;1763874;79;21103;-58
2022/06/08 02:11:43;;;;;;;18.67;13.30;;;;;;;16.69;100.00;100152.87;1769750;79;21701;-55
2022/06/08 02:14:16;;;;;;;21.03;14.57;;;;;;;17.17;100.00;100153.25;1743449;81;20942;-59
2022/06/08 02:16:52;;;;;;;21.77;14.00;;;;;;;17.66;100.00;100151.69;1774874;79;21204;-55
2022/06/08 02:19:43;;;;;;;20.97;14.00;;;;;;;18.20;100.00;100141.16;1774663;79;21393;-56
2022/06/08 02:22:26;;;;;;;19.42;14.47;;;;;;;18.71;100.00;100140.78;1769859;79;22059;-57
2022/06/08 02:25:03;;;;;;;18.53;14.27;;;;;;;19.38;100.00;100137.78;1735487;81;21069;-56
2022/06/08 02:27:38;;;;;;;19.10;13.43;;;;;;;20.00;100.00;100141.51;1769917;79;21030;-58
2022/06/08 02:30:12;;;;;;;17.00;11.87;;;;;;;20.70;100.00;100141.67;1769319;81;21143;-57
2022/06/08 02:36:02;;;;;;;16.07;11.67;;;;;;;22.10;100.00;100149.08;1768685;81;21062;-57
2022/06/08 02:38:35;;;;;;;20.73;12.67;;;;;;;22.87;100.00;100147.31;1768948;80;21515;-56
2022/06/08 02:41:04;;;;;;;15.73;11.53;;;;;;;23.41;100.00;100153.38;1753196;80;21106;-57
2022/06/08 02:43:51;;;;;;;16.67;12.40;;;;;;;24.07;100.00;100154.20;1737642;81;21873;-55
2022/06/08 02:46:49;;;;;;;17.67;13.77;;;;;;;24.60;100.00;100156.53;1777943;79;21496;-57
2022/06/08 02:49:16;;;;;;;18.37;15.37;;;;;;;25.08;93.86;100151.83;1739292;81;21060;-57
2022/06/08 02:51:48;;;;;;;19.90;16.07;;;;;;;25.70;84.29;100152.25;1756870;81;21721;-63
2022/06/08 02:54:22;;;;;;;18.43;14.67;;;;;;;26.19;77.60;100159.10;1759449;81;21714;-56
2022/06/08 02:57:16;;;;;;;17.27;14.73;;;;;;;26.68;71.12;100161.86;1758656;80;20962;-57
2022/06/08 02:59:52;;;;;;;16.37;13.55;;;;;;;27.06;65.32;100152.93;1767761;80;21438;-56
2022/06/08 03:02:27;;;;;;;16.82;13.50;;;;;;;27.41;61.43;100152.83;1769399;81;21124;-57
2022/06/08 03:05:17;;;;;;;16.30;12.65;;;;;;;27.68;60.19;100156.03;1764440;81;21013;-64
2022/06/08 03:07:59;;;;;;;17.55;12.65;;;;;;;28.04;57.60;100160.67;1752814;81;21058;-58
2022/06/08 03:10:27;;;;;;;17.27;12.20;;;;;;;28.55;55.29;100158.95;1760965;80;21242;-64
2022/06/08 03:13:05;;;;;;;16.12;12.78;;;;;;;28.94;52.33;100160.67;1763069;81;21557;-55
2022/06/08 03:15:34;;;;;;;16.90;13.48;;;;;;;29.17;51.15;100152.86;1761773;81;21022;-55
2022/06/08 03:18:04;;;;;;;20.05;14.05;;;;;;;29.53;50.81;100158.58;1761055;81;21018;-64
2022/06/08 03:20:32;;;;;;;17.42;13.83;;;;;;;30.10;49.37;100154.49;1761149;81;21062;-55
2022/06/08 03:23:00;;;;;;;18.92;13.55;;;;;;;30.64;47.64;100151.45;1763575;80;21331;-55
2022/06/08 03:25:29;;;;;;;19.23;14.17;;;;;;;30.96;45.71;100152.84;1762103;79;21081;-55
2022/06/08 03:27:56;;;;;;;20.30;14.40;;;;;;;31.26;44.56;100150.97;1762187;81;21051;-55
2022/06/08 03:30:24;;;;;;;17.17;14.63;;;;;;;31.65;43.76;100152.52;1760882;81;21472;-57
2022/06/08 03:32:51;;;;;;;18.20;15.32;;;;;;;31.88;42.28;100152.23;1760871;81;21838;-56
2022/06/08 03:35:18;;;;;;;16.65;14.45;;;;;;;31.89;41.43;100151.11;1762153;81;21157;-56
2022/06/08 03:37:47;;;;;;;18.70;14.70;;;;;;;32.04;41.10;100151.86;1761074;80;20935;-58
2022/06/08 03:40:16;;;;;;;21.52;14.75;;;;;;;32.35;40.23;100153.34;1761871;81;21551;-57
2022/06/08 03:42:43;;;;;;;16.40;14.00;;;;;;;32.53;39.71;100154.78;1761388;81;21886;-56
2022/06/08 03:45:11;;;;;;;17.67;14.38;;;;;;;32.97;39.04;100147.04;1762969;81;21455;-57
2022/06/08 03:47:44;;;;;;;17.95;14.87;;;;;;;33.40;37.95;100145.68;1761298;81;21234;-56
2022/06/08 03:50:17;;;;;;;19.23;15.85;;;;;;;33.87;36.99;100150.02;1760841;81;21038;-57
2022/06/08 03:52:49;;;;;;;17.32;14.93;;;;;;;34.27;36.02;100143.02;1760842;81;21706;-55
2022/06/08 03:55:16;;;;;;;22.55;17.80;;;;;;;34.73;34.91;100148.89;1761964;81;21638;-55
2022/06/08 03:57:45;;;;;;;21.00;16.45;;;;;;;35.01;34.18;100144.22;1743130;80;21003;-57
2022/06/08 04:00:14;;;;;;;21.40;18.12;;;;;;;35.31;33.60;100145.89;1762845;80;21214;-57
2022/06/08 04:02:52;;;;;;;21.52;17.77;;;;;;;35.54;33.43;100139.26;1763219;79;21065;-55
2022/06/08 04:05:20;;;;;;;22.77;18.85;;;;;;;35.80;33.06;100142.72;1766511;79;20940;-55
2022/06/08 04:07:47;;;;;;;22.75;18.20;;;;;;;35.96;32.45;100139.93;1758433;81;21113;-57
2022/06/08 04:10:14;;;;;;;22.90;18.92;;;;;;;36.05;32.41;100141.09;1771660;79;20935;-63
2022/06/08 04:12:43;;;;;;;22.25;18.00;;;;;;;36.28;31.71;100138.42;1737717;80;21308;-56
2022/06/08 04:15:10;;;;;;;21.55;16.67;;;;;;;36.45;31.54;100142.05;1757002;81;21489;-56
2022/06/08 04:17:39;;;;;;;22.10;17.90;;;;;;;37.13;30.71;100144.58;1769612;79;21073;-56
2022/06/08 04:20:09;;;;;;;19.40;17.30;;;;;;;37.13;30.71;100144.58;1752108;81;21686;-57
2022/06/08 04:22:36;;;;;;;;;;;;;;;37.35;30.21;100144.30;1739481;80;21447;-56
2022/06/08 04:25:05;;;;;;;23.45;17.77;;;;;;;37.55;29.79;100145.01;1772226;78;21305;-55
2022/06/08 04:27:34;;;;;;;22.67;18.80;;;;;;;37.73;29.35;100141.13;1769714;79;20986;-56
2022/06/08 04:30:01;;;;;;;24.07;18.60;;;;;;;37.97;28.92;100140.69;1778080;79;21591;-57
2022/06/08 04:32:29;;;;;;;20.52;17.90;;;;;;;38.04;27.71;100139.22;1755024;79;21562;-55
2022/06/08 04:34:57;;;;;;;18.57;16.52;;;;;;;38.01;27.38;100139.95;1776793;79;22112;-56
2022/06/08 04:37:26;;;;;;;20.90;18.60;;;;;;;37.76;26.87;100144.48;1782931;79;21419;-56
2022/06/08 04:39:54;;;;;;;21.42;18.98;;;;;;;37.44;26.69;100144.08;1775311;79;20931;-58
2022/06/08 04:42:21;;;;;;;20.72;18.52;;;;;;;37.13;26.76;100146.52;1769178;79;21026;-61
2022/06/08 04:44:49;;;;;;;22.25;18.35;;;;;;;37.16;26.98;100143.05;1773496;79;21461;-55
2022/06/08 04:47:19;;;;;;;22.40;18.95;;;;;;;37.17;26.92;100146.77;1777609;79;21890;-55
2022/06/08 04:49:47;;;;;;;22.37;19.95;;;;;;;37.23;27.05;100135.00;1784783;79;21572;-56
2022/06/08 04:52:15;;;;;;;25.50;20.32;;;;;;;37.22;27.33;100141.59;1775809;79;21030;-57
2022/06/08 04:54:42;;;;;;;21.85;19.57;;;;;;;37.45;27.18;100136.90;1781869;79;21044;-57
2022/06/08 04:57:11;;;;;;;24.52;20.82;;;;;;;37.77;26.91;100143.31;1775329;79;21097;-57
2022/06/08 04:59:40;;;;;;;23.85;21.25;;;;;;;37.82;26.19;100138.93;1749723;79;21109;-55
2022/06/08 05:02:42;;;;;;;27.05;24.15;;;;;;;37.43;26.25;100139.22;1767810;79;20996;-57
2022/06/08 05:04:41;;;;;;;29.30;24.10;;;;;;;37.23;26.95;100146.66;1767629;79;21046;-58
2022/06/08 05:07:11;;;;;;;31.15;25.68;;;;;;;37.19;26.84;100143.09;1749554;80;21842;-56
2022/06/08 05:09:38;;;;;;;26.37;23.55;;;;;;;37.20;26.57;100138.44;1740067;82;21054;-64
2022/06/08 05:12:08;;;;;;;28.35;24.67;;;;;;;37.37;26.91;100144.72;1754403;81;21073;-57
2022/06/08 05:14:36;;;;;;;30.95;26.20;;;;;;;37.47;25.45;100140.62;1713003;82;21195;-61
2022/06/08 05:17:06;;;;;;;33.90;28.57;;;;;;;37.01;25.95;100137.97;1730612;82;21667;-56
2022/06/08 05:19:33;;;;;;;31.62;28.10;;;;;;;37.06;26.59;100143.11;1734305;81;20907;-57
2022/06/08 05:22:01;;;;;;;38.92;34.40;;;;;;;37.42;26.02;100136.84;1733051;82;21117;-56
2022/06/08 05:24:28;;;;;;;41.20;35.28;;;;;;;37.67;25.88;100139.33;1731976;82;21097;-61
2022/06/08 05:26:55;;;;;;;39.10;34.83;;;;;;;37.88;25.53;100144.84;1744714;81;22272;-56
2022/06/08 05:29:23;;;;;;;42.73;38.20;;;;;;;37.77;25.72;100141.95;1733827;81;22025;-56
2022/06/08 05:31:51;;;;;;;43.73;39.10;;;;;;;37.65;26.11;100143.56;1744336;81;20998;-57
2022/06/08 05:34:19;;;;;;;46.92;40.20;;;;;;;37.58;26.38;100141.55;1736438;81;21323;-58
2022/06/08 05:36:47;;;;;;;43.70;38.85;;;;;;;37.70;25.96;100147.34;1712544;82;21041;-64
2022/06/08 05:39:18;;;;;;;45.40;39.88;;;;;;;37.75;26.43;100144.28;1738995;81;22388;-56
2022/06/08 05:41:45;;;;;;;48.90;42.62;;;;;;;38.04;25.92;100146.02;1721721;82;21108;-55
2022/06/08 05:44:12;;;;;;;47.60;40.83;;;;;;;38.02;25.32;100139.57;1734762;82;21496;-55
2022/06/08 05:46:39;;;;;;;45.73;40.80;;;;;;;37.79;25.15;100138.89;1762397;80;21061;-64
2022/06/08 05:49:11;;;;;;;34.50;30.92;;;;;;;37.64;25.35;100143.36;1733058;82;22289;-57
2022/06/08 05:51:41;;;;;;;38.40;34.13;;;;;;;37.59;24.89;100136.31;1739855;81;22204;-57
2022/06/08 05:54:08;;;;;;;43.58;38.23;;;;;;;37.59;25.15;100139.61;1744624;81;21125;-56
2022/06/08 05:56:36;;;;;;;42.80;37.60;;;;;;;37.68;25.11;100131.95;1733513;82;20991;-58
2022/06/08 05:59:04;;;;;;;37.45;33.55;;;;;;;37.93;25.34;100126.84;1742956;81;21504;-56
2022/06/08 06:01:33;;;;;;;41.10;36.58;;;;;;;38.38;24.64;100135.33;1734495;82;22341;-58
2022/06/08 06:04:03;;;;;;;39.88;34.30;;;;;;;38.67;24.09;100128.17;1734145;82;21244;-58
2022/06/08 06:06:31;;;;;;;35.55;30.75;;;;;;;38.96;24.35;100129.80;1755301;81;20994;-58
2022/06/08 06:09:01;;;;;;;32.58;27.55;;;;;;;39.22;23.20;100129.38;1762693;81;21049;-58
2022/06/08 06:11:29;;;;;;;;;;;;;;;39.16;23.34;100128.36;1771914;79;20997;-55
2022/06/08 06:13:57;;;;;;;29.72;26.40;;;;;;;39.13;22.56;100132.42;1769404;80;20228;-55
2022/06/08 06:16:25;;;;;;;26.75;23.95;;;;;;;39.27;22.86;100125.73;1729529;80;21252;-57
2022/06/08 06:18:56;;;;;;;23.77;21.27;;;;;;;39.39;22.69;100122.67;1782465;79;21495;-65
2022/06/08 06:21:27;;;;;;;16.52;14.83;;;;;;;39.37;21.83;100116.06;1772563;79;21642;-56
2022/06/08 06:23:57;;;;;;;16.75;14.25;;;;;;;39.25;20.95;100113.63;1768286;80;20985;-56
2022/06/08 06:26:32;;;;;;;18.95;15.68;;;;;;;39.14;20.87;100121.74;1770492;80;21008;-65
2022/06/08 06:29:16;;;;;;;18.70;15.88;;;;;;;39.17;20.91;100116.88;1709018;80;21104;-57
2022/06/08 06:32:05;;;;;;;18.37;15.70;;;;;;;39.02;21.29;100117.94;1729603;82;21080;-64
2022/06/08 06:34:34;;;;;;;18.62;16.57;;;;;;;39.11;20.99;100119.77;1772920;79;20923;-57
2022/06/08 06:37:03;;;;;;;17.60;15.43;;;;;;;39.35;21.53;100117.01;1768813;81;21324;-57
2022/06/08 06:39:32;;;;;;;;;;;;;;;39.43;20.87;100113.73;1771734;81;20918;-57
2022/06/08 06:42:01;;;;;;;17.00;12.50;;;;;;;39.43;20.80;100111.01;1769856;79;21159;-57
2022/06/08 06:44:30;;;;;;;10.75;9.58;;;;;;;39.23;21.09;100108.54;1737193;80;21010;-57
2022/06/08 06:47:07;;;;;;;6.53;5.80;;;;;;;39.16;20.05;100107.91;1756749;81;21015;-59
2022/06/08 06:49:43;;;;;;;11.78;9.30;;;;;;;39.22;19.07;100112.44;1784926;79;21590;-65
2022/06/08 06:52:12;;;;;;;12.37;9.05;;;;;;;39.65;19.60;100107.98;1775366;79;21187;-57
2022/06/08 06:54:40;;;;;;;7.55;5.40;;;;;;;39.84;19.14;100112.95;1782576;79;21218;-59
2022/06/08 06:57:09;;;;;;;5.92;4.80;;;;;;;39.63;18.41;100108.97;1769893;79;21057;-58
2022/06/08 06:59:38;;;;;;;8.85;7.28;;;;;;;39.44;18.73;100104.38;1775585;79;21002;-56
2022/06/08 07:02:14;;;;;;;6.83;4.70;;;;;;;39.47;19.55;100099.53;1764786;79;20966;-63
2022/06/08 07:04:41;;;;;;;4.53;3.62;;;;;;;39.61;18.53;100102.33;1747846;81;21863;-56
2022/06/08 07:07:09;;;;;;;9.25;4.97;;;;;;;39.82;18.26;100105.75;1741352;80;21108;-59
2022/06/08 07:09:36;;;;;;;11.95;6.97;;;;;;;40.11;18.12;100098.39;1765008;80;21124;-58
2022/06/08 07:12:05;;;;;;;8.83;7.20;;;;;;;40.41;17.81;100106.26;1738200;81;21564;-57
2022/06/08 07:14:35;;;;;;;8.40;7.10;;;;;;;40.70;18.01;100104.34;1775799;79;21046;-56
2022/06/08 07:17:09;;;;;;;9.55;7.45;;;;;;;40.94;17.94;100098.64;1779341;79;21189;-61
2022/06/08 07:19:39;;;;;;;7.42;5.50;;;;;;;41.07;18.11;100096.32;1766329;79;21685;-59
2022/06/08 07:22:09;;;;;;;6.45;4.67;;;;;;;41.03;17.67;100100.43;1778790;79;21567;-61
2022/06/08 07:24:36;;;;;;;4.67;3.67;;;;;;;40.92;17.83;100094.77;1745053;80;20938;-58
2022/06/08 07:27:04;;;;;;;7.05;5.92;;;;;;;40.41;17.60;100091.23;1776429;79;21109;-58
2022/06/08 07:29:33;;;;;;;6.85;5.58;;;;;;;39.62;18.14;100099.20;1778656;79;21384;-63
2022/06/08 07:32:00;;;;;;;6.90;5.10;;;;;;;38.74;19.38;100100.80;1781056;79;22113;-58
2022/06/08 07:34:29;;;;;;;9.05;5.92;;;;;;;38.21;20.03;100095.05;1747016;79;38735;-57
2022/06/08 07:36:57;;;;;;;6.47;3.98;;;;;;;38.26;19.61;100098.78;1769157;81;20958;-60
2022/06/08 07:39:24;;;;;;;3.80;1.98;;;;;;;38.38;20.10;100095.06;1776533;79;21057;-64
2022/06/08 07:41:52;;;;;;;5.95;3.80;;;;;;;38.13;20.09;100092.06;1779279;79;20926;-66
2022/06/08 07:44:20;;;;;;;6.45;4.35;;;;;;;37.66;20.45;100093.47;1773735;79;21758;-58
2022/06/08 07:46:47;;;;;;;6.47;4.53;;;;;;;37.53;20.47;100090.19;1756788;81;21010;-59
2022/06/08 07:49:36;;;;;;;7.78;5.35;;;;;;;37.66;20.32;100088.03;1770204;79;21578;-60
2022/06/08 07:52:13;;;;;;;8.10;6.20;;;;;;;37.61;20.25;100084.26;1730582;81;21066;-61
2022/06/08 07:54:41;;;;;;;7.62;5.15;;;;;;;37.32;21.15;100087.96;1770643;79;21681;-60
2022/06/08 07:57:10;;;;;;;5.87;4.92;;;;;;;36.84;21.03;100083.55;1776111;79;21274;-58
2022/06/08 07:59:38;;;;;;;9.10;7.10;;;;;;;36.76;21.43;100085.95;1779275;79;21582;-59
2022/06/08 08:02:06;;;;;;;7.17;5.92;;;;;;;36.49;22.21;100090.55;1773940;79;21055;-58
2022/06/08 08:04:35;;;;;;;8.38;6.15;;;;;;;36.10;22.42;100083.03;1780268;79;21013;-60
2022/06/08 08:07:02;;;;;;;8.83;5.72;;;;;;;36.04;22.54;100087.40;1774330;79;21484;-63
2022/06/08 08:09:31;;;;;;;6.00;4.58;;;;;;;36.43;22.28;100077.81;1762152;80;22178;-62
2022/06/08 08:11:58;;;;;;;7.03;5.90;;;;;;;36.89;21.54;100072.94;1770683;79;21127;-55
2022/06/08 08:14:25;;;;;;;11.83;9.55;;;;;;;36.85;21.67;100072.88;1769815;79;21042;-59
2022/06/08 08:16:54;;;;;;;10.93;7.50;;;;;;;36.36;21.14;100073.61;1770661;80;21491;-55
2022/06/08 08:19:23;;;;;;;8.25;6.05;;;;;;;36.12;21.14;100076.11;1769722;79;20971;-61
2022/06/08 08:21:51;;;;;;;9.55;5.95;;;;;;;36.15;21.12;100073.26;1769706;79;22984;-55
2022/06/08 08:24:19;;;;;;;6.92;5.22;;;;;;;36.24;21.50;100069.72;1770529;79;21030;-57
2022/06/08 08:26:48;;;;;;;7.45;5.17;;;;;;;36.16;21.47;100062.61;1770389;79;21239;-57
2022/06/08 08:29:17;;;;;;;8.85;6.87;;;;;;;36.29;21.62;100067.52;1769823;80;21036;-65
2022/06/08 08:31:44;;;;;;;8.90;6.65;;;;;;;36.57;21.77;100064.30;1769770;80;21012;-58
2022/06/08 08:34:11;;;;;;;8.95;7.00;;;;;;;36.78;21.71;100066.76;1769625;79;21240;-57
2022/06/08 08:36:41;;;;;;;8.65;6.75;;;;;;;37.03;21.71;100063.67;1769218;79;20998;-57
2022/06/08 08:39:08;;;;;;;14.43;9.23;;;;;;;37.19;20.92;100063.50;1737576;81;21128;-65
2022/06/08 08:44:34;;;;;;;13.88;7.50;;;;;;;36.78;21.84;100057.25;1769803;80;21005;-56
2022/06/08 08:47:44;;;;;;;8.00;6.53;;;;;;;36.49;22.61;100052.55;1769325;80;21065;-58
2022/06/08 08:50:28;;;;;;;10.40;6.22;;;;;;;36.32;22.59;100059.20;1737856;82;20982;-63
2022/06/08 08:53:15;;;;;;;10.55;6.78;;;;;;;35.74;22.01;100063.34;1733269;81;21417;-56
2022/06/08 08:56:04;;;;;;;8.93;7.45;;;;;;;35.21;22.05;100061.63;1770729;79;21483;-62
2022/06/08 08:58:42;;;;;;;10.98;7.35;;;;;;;35.07;23.32;100064.23;1770322;80;21053;-55
2022/06/08 09:01:22;;;;;;;10.20;7.55;;;;;;;35.42;22.69;100060.75;1770711;79;21165;-56
2022/06/08 09:04:03;;;;;;;10.95;8.08;;;;;;;35.60;22.02;100048.14;1757102;80;21469;-56
2022/06/08 09:06:32;;;;;;;12.95;8.68;;;;;;;35.57;22.24;100053.70;1772611;79;21042;-56
2022/06/08 09:09:02;;;;;;;11.95;7.62;;;;;;;35.36;22.64;100054.03;1739591;81;21002;-65
2022/06/08 09:11:34;;;;;;;;;;;;;;;35.47;21.96;100049.61;1784596;79;20883;-63
2022/06/08 09:14:16;;;;;;;13.95;8.43;;;;;;;35.92;22.17;100041.42;1769285;79;21893;-57
2022/06/08 09:16:46;;;;;;;9.28;7.50;;;;;;;36.34;21.58;100040.63;1772252;80;21469;-64
2022/06/08 09:19:30;;;;;;;9.75;8.70;;;;;;;36.78;20.99;100038.81;1746562;79;22018;-59
2022/06/08 09:22:09;;;;;;;10.85;8.50;;;;;;;37.28;21.58;100036.03;1785550;79;20987;-56
2022/06/08 09:24:40;;;;;;;9.50;7.20;;;;;;;37.53;20.71;100037.73;1770744;79;20982;-56
2022/06/08 09:27:31;;;;;;;10.05;7.62;;;;;;;37.54;20.40;100037.36;1782524;79;21361;-57
2022/06/08 09:30:25;;;;;;;13.95;9.13;;;;;;;37.84;20.54;100030.50;1765462;80;21667;-65
2022/06/08 09:32:59;;;;;;;12.82;9.43;;;;;;;38.10;20.22;100027.48;1772425;79;21809;-56
2022/06/08 09:35:39;;;;;;;13.55;9.53;;;;;;;37.52;20.74;100029.38;1775629;79;21610;-59
2022/06/08 09:38:13;;;;;;;14.20;9.53;;;;;;;36.82;21.49;100027.42;1748653;81;22017;-61
2022/06/08 09:41:03;;;;;;;10.63;8.70;;;;;;;36.19;21.19;100029.33;1776018;79;21076;-57
2022/06/08 09:44:21;;;;;;;10.82;9.60;;;;;;;35.40;22.45;100026.42;1771816;79;21081;-61
2022/06/08 09:53:46;;;;;;;10.58;8.78;;;;;;;35.35;23.29;100021.30;1775334;79;21010;-56
2022/06/08 09:56:31;;;;;;;11.15;9.10;;;;;;;35.41;22.98;100014.44;1733704;80;22198;-57
2022/06/08 09:59:15;;;;;;;11.43;8.25;;;;;;;35.05;24.57;100009.63;1778604;79;20962;-56
2022/06/08 10:01:59;;;;;;;14.23;10.68;;;;;;;35.12;23.54;100012.27;1769688;79;21040;-56
2022/06/08 10:04:56;;;;;;;15.93;11.22;;;;;;;34.94;23.33;100009.94;1776814;79;21020;-57
2022/06/08 10:07:37;;;;;;;14.38;9.40;;;;;;;34.57;24.17;100012.95;1745321;79;21075;-56
2022/06/08 10:10:34;;;;;;;12.85;10.00;;;;;;;34.29;24.82;100014.95;1764271;80;21344;-56
2022/06/08 10:13:05;;;;;;;16.27;10.30;;;;;;;34.19;24.15;100006.78;1761235;79;20938;-55
2022/06/08 10:15:42;;;;;;;12.47;10.88;;;;;;;34.50;24.82;100008.72;1774582;79;21037;-56
2022/06/08 10:18:29;;;;;;;13.13;11.15;;;;;;;34.88;23.20;99998.38;1757828;79;22269;-57
2022/06/08 10:21:16;;;;;;;14.63;11.70;;;;;;;35.23;23.29;99992.95;1734647;81;21104;-64
2022/06/08 10:24:16;;;;;;;13.60;10.08;;;;;;;35.79;22.30;99989.82;1781143;79;21771;-56
2022/06/08 10:26:53;;;;;;;11.93;10.08;;;;;;;36.02;22.56;99989.30;1766340;81;21902;-56
2022/06/08 10:29:45;;;;;;;12.47;10.58;;;;;;;36.00;22.31;99982.10;1776675;79;21441;-58
2022/06/08 10:32:27;;;;;;;14.90;10.25;;;;;;;35.91;22.07;99976.08;1769547;80;21842;-55
2022/06/08 10:34:55;;;;;;;17.00;12.03;;;;;;;35.91;23.12;99985.58;1758924;80;21057;-58
2022/06/08 10:37:39;;;;;;;14.28;11.57;;;;;;;36.22;23.02;99978.41;1768494;80;21133;-62
2022/06/08 10:40:20;;;;;;;15.15;12.43;;;;;;;36.57;22.36;99979.55;1768545;81;21116;-56
2022/06/08 10:42:48;;;;;;;12.73;9.70;;;;;;;36.36;22.68;99973.17;1767639;79;21096;-57
2022/06/08 10:45:38;;;;;;;9.45;8.15;;;;;;;36.42;22.61;99975.02;1773013;79;20934;-58
2022/06/08 10:48:22;;;;;;;9.40;8.40;;;;;;;36.66;21.09;99971.13;1786994;79;21484;-60
2022/06/08 10:51:09;;;;;;;10.55;8.40;;;;;;;36.53;21.01;99969.99;1762106;79;21254;-60
2022/06/08 10:56:41;;;;;;;11.63;8.30;;;;;;;36.17;22.70;99965.12;1776160;79;26590;-61
2022/06/08 10:59:16;;;;;;;12.60;8.85;;;;;;;36.39;22.51;99968.38;1757262;81;21495;-59
2022/06/08 11:02:01;;;;;;;10.23;8.08;;;;;;;36.61;22.24;99963.31;1773844;79;21005;-65
2022/06/08 11:04:34;;;;;;;10.93;8.73;;;;;;;36.99;22.26;99958.23;1750683;80;21179;-59
2022/06/08 11:07:07;;;;;;;10.08;8.15;;;;;;;37.03;21.93;99959.64;1748981;80;20943;-59
2022/06/08 11:09:44;;;;;;;9.88;7.75;;;;;;;36.86;22.45;99967.17;1778775;79;21518;-56
2022/06/08 11:12:18;;;;;;;11.93;8.85;;;;;;;36.78;21.82;99955.97;1778530;79;21053;-56
2022/06/08 11:14:52;;;;;;;11.28;10.00;;;;;;;36.38;21.96;99960.04;1771065;79;21046;-56
2022/06/08 11:17:38;;;;;;;10.70;8.60;;;;;;;35.82;22.54;99962.77;1760672;80;21235;-63
2022/06/08 11:20:32;;;;;;;10.93;8.18;;;;;;;35.60;22.33;99957.31;1776350;79;20986;-55
2022/06/08 11:23:16;;;;;;;10.45;7.92;;;;;;;35.83;23.15;99958.13;1773812;79;21016;-60
2022/06/08 11:26:12;;;;;;;8.58;7.05;;;;;;;36.09;22.59;99951.23;1765977;79;21011;-55
2022/06/08 11:28:48;;;;;;;10.60;6.35;;;;;;;36.42;22.33;99958.73;1778282;79;21053;-57
2022/06/08 11:31:32;;;;;;;13.95;5.65;;;;;;;36.61;22.03;99957.88;1773813;79;21157;-55
2022/06/08 11:34:24;;;;;;;8.18;5.60;;;;;;;36.20;22.19;99952.97;1767898;79;21046;-56
2022/06/08 11:37:29;;;;;;;6.42;5.33;;;;;;;35.45;22.41;99957.58;1760715;80;21068;-57
2022/06/08 11:40:27;;;;;;;9.73;6.47;;;;;;;34.56;23.17;99951.84;1772491;80;21525;-58
2022/06/08 11:43:21;;;;;;;11.80;6.95;;;;;;;33.79;24.44;99955.48;1780764;79;21068;-58
2022/06/08 11:45:52;;;;;;;11.45;6.67;;;;;;;33.88;24.52;99950.71;1769930;80;21250;-57
2022/06/08 11:48:22;;;;;;;8.40;6.15;;;;;;;34.20;23.47;99954.80;1741047;81;20879;-60
2022/06/08 11:50:59;;;;;;;8.50;5.92;;;;;;;34.30;23.44;99942.89;1731340;81;21064;-66
2022/06/08 11:53:35;;;;;;;8.20;5.50;;;;;;;34.26;23.73;99946.08;1775327;79;21069;-56
2022/06/08 11:56:27;;;;;;;8.43;6.37;;;;;;;34.27;23.71;99947.64;1771625;79;21042;-58
2022/06/08 11:58:57;;;;;;;8.75;5.72;;;;;;;34.10;24.25;99944.73;1770305;79;21442;-58
2022/06/08 12:01:42;;;;;;;9.13;6.12;;;;;;;33.86;25.39;99946.20;1771319;80;21042;-65
2022/06/08 12:04:17;;;;;;;8.18;6.03;;;;;;;33.71;24.85;99945.05;1779609;80;21432;-57